Time;durP1;ratioP1;P1;durP2;ratioP2;P2;SDS_P1;SDS_P2;PMS_P1;PMS_P2;Temp;Humidity;BMP_temperature;BMP_pressure;BME280_temperature;BME280_humidity;BME280_pressure;Samples;Min_cycle;Max_cycle;Signal;HPM_P1;HPM_P2
2021/12/19 00:01:15;;;;;;;;;;;;;;;19.87;46.32;103575.44;7279416;19;151906;-50
2021/12/19 00:11:11;;;;;;;;;;;;;;;20.11;45.90;103557.56;7277140;19;153511;-51
2021/12/19 00:13:40;;;;;;;;;;;;;;;20.18;45.80;103560.25;7276826;19;153789;-50
2021/12/19 00:16:08;;;;;;;;;;;;;;;20.24;45.58;103559.28;7279792;19;151855;-50
2021/12/19 00:18:35;;;;;;;;;;;;;;;20.27;45.50;103548.41;7279654;19;153335;-50
2021/12/19 00:21:03;;;;;;;;;;;;;;;20.36;45.65;103546.13;7285532;19;154760;-51
2021/12/19 00:23:38;;;;;;;;;;;;;;;20.41;45.50;103549.91;7278455;19;153175;-50
2021/12/19 00:26:05;;;;;;;;;;;;;;;20.47;45.51;103548.09;7280012;19;153578;-51
2021/12/19 00:28:32;;;;;;;;;;;;;;;20.52;45.02;103541.72;7276448;19;153362;-50
2021/12/19 00:31:00;;;;;;;;;;;;;;;20.57;45.39;103542.72;7278321;19;151969;-49
2021/12/19 00:33:27;;;;;;;;;;;;;;;20.63;44.98;103538.03;7275477;19;153504;-51
2021/12/19 00:35:54;;;;;;;;;;;;;;;20.67;45.21;103533.66;7278060;19;152656;-51
2021/12/19 00:38:21;;;;;;;;;;;;;;;20.72;44.99;103542.19;7278947;19;153344;-50
2021/12/19 00:40:48;;;;;;;;;;;;;;;20.75;44.45;103548.19;7284597;19;152294;-51
2021/12/19 00:45:47;;;;;;;;;;;;;;;20.82;44.36;103556.47;7276531;19;153955;-51
2021/12/19 00:48:14;;;;;;;;;;;;;;;20.84;44.52;103552.31;7276665;19;151745;-50
2021/12/19 00:50:41;;;;;;;;;;;;;;;20.86;44.46;103547.28;7275651;19;152421;-51
2021/12/19 00:53:08;;;;;;;;;;;;;;;20.88;44.21;103538.63;7274129;19;155001;-51
2021/12/19 00:55:35;;;;;;;;;;;;;;;20.90;44.26;103541.16;7277658;19;152142;-51
2021/12/19 00:58:04;;;;;;;;;;;;;;;20.92;43.96;103534.22;7277695;19;153231;-52
2021/12/19 01:00:32;;;;;;;;;;;;;;;20.92;44.03;103534.22;7276120;19;155986;-51
2021/12/19 01:03:00;;;;;;;;;;;;;;;20.95;44.02;103532.84;7284187;19;151952;-50
2021/12/19 01:05:29;;;;;;;;;;;;;;;20.94;43.71;103531.16;7273693;19;153167;-51
2021/12/19 01:07:56;;;;;;;;;;;;;;;20.94;43.81;103525.53;7274902;19;152168;-51
2021/12/19 01:10:23;;;;;;;;;;;;;;;20.93;43.96;103530.31;7274586;19;153275;-52
2021/12/19 01:12:50;;;;;;;;;;;;;;;20.92;43.60;103536.16;7278741;19;152750;-51
2021/12/19 01:15:17;;;;;;;;;;;;;;;20.92;43.51;103541.78;7279581;19;151774;-51
2021/12/19 01:17:45;;;;;;;;;;;;;;;20.91;43.89;103540.06;7278011;19;152688;-51
2021/12/19 01:20:14;;;;;;;;;;;;;;;20.89;43.72;103540.34;7276516;19;153583;-52
2021/12/19 01:22:41;;;;;;;;;;;;;;;20.89;43.44;103534.72;7278899;19;151814;-51
2021/12/19 01:25:08;;;;;;;;;;;;;;;20.89;43.80;103542.28;7283774;19;153154;-51
2021/12/19 01:27:36;;;;;;;;;;;;;;;20.86;43.54;103544.50;7276899;19;152806;-51
2021/12/19 01:30:04;;;;;;;;;;;;;;;20.85;43.50;103541.91;7273462;19;153399;-51
2021/12/19 01:32:31;;;;;;;;;;;;;;;20.83;43.34;103550.59;7278481;19;152692;-51
2021/12/19 01:34:59;;;;;;;;;;;;;;;20.83;43.71;103542.19;7277833;19;152328;-52
2021/12/19 01:37:26;;;;;;;;;;;;;;;20.82;43.59;103545.22;7277241;19;152672;-52
2021/12/19 01:39:53;;;;;;;;;;;;;;;20.78;43.84;103539.25;7275845;19;153050;-51
2021/12/19 01:42:20;;;;;;;;;;;;;;;20.77;43.37;103545.13;7277045;19;152553;-49
2021/12/19 01:44:47;;;;;;;;;;;;;;;20.75;43.37;103545.38;7277606;19;154120;-49
2021/12/19 01:47:14;;;;;;;;;;;;;;;20.73;43.53;103536.31;7284955;19;153395;-50
2021/12/19 01:49:42;;;;;;;;;;;;;;;20.72;43.58;103536.56;7273443;19;153385;-50
2021/12/19 01:52:09;;;;;;;;;;;;;;;20.69;43.81;103529.50;7276307;19;153193;-49
2021/12/19 01:54:36;;;;;;;;;;;;;;;20.67;43.91;103528.88;7275494;19;152090;-49
2021/12/19 01:57:03;;;;;;;;;;;;;;;20.65;43.68;103525.47;7275770;19;152921;-49
2021/12/19 01:59:30;;;;;;;;;;;;;;;20.65;43.73;103521.81;7275903;19;153463;-50
2021/12/19 02:01:57;;;;;;;;;;;;;;;20.60;43.86;103516.06;7274633;19;152183;-50
2021/12/19 02:04:30;;;;;;;;;;;;;;;20.59;43.41;103515.22;7271494;19;152741;-49
2021/12/19 02:06:58;;;;;;;;;;;;;;;20.55;43.47;103516.81;7276295;19;154662;-50
2021/12/19 02:09:25;;;;;;;;;;;;;;;20.54;43.65;103519.84;7281755;19;152018;-50
2021/12/19 02:11:52;;;;;;;;;;;;;;;20.49;43.81;103511.34;7274056;19;153343;-50
2021/12/19 02:14:20;;;;;;;;;;;;;;;20.49;43.99;103514.97;7274199;19;151866;-49
2021/12/19 02:16:47;;;;;;;;;;;;;;;20.47;43.70;103517.19;7276836;19;153917;-50
2021/12/19 02:19:14;;;;;;;;;;;;;;;20.43;43.89;103510.38;7276974;19;154432;-50
2021/12/19 02:21:41;;;;;;;;;;;;;;;20.40;43.78;103511.69;7282277;19;151974;-50
2021/12/19 02:24:09;;;;;;;;;;;;;;;20.37;44.05;103517.81;7284680;19;153238;-49
2021/12/19 02:26:37;;;;;;;;;;;;;;;20.37;43.84;103512.19;7282385;19;154640;-50
2021/12/19 02:29:04;;;;;;;;;;;;;;;20.35;43.81;103505.94;7281097;19;152006;-51
2021/12/19 02:31:32;;;;;;;;;;;;;;;20.32;44.11;103512.06;7286834;19;152875;-50
2021/12/19 02:34:05;;;;;;;;;;;;;;;20.31;43.77;103509.50;7281165;19;152194;-49
2021/12/19 02:49:04;;;;;;;;;;;;;;;20.16;43.92;103498.75;7282508;19;151749;-50
2021/12/19 02:51:34;;;;;;;;;;;;;;;20.15;44.28;103494.22;7284021;19;152621;-50
2021/12/19 02:54:01;;;;;;;;;;;;;;;20.14;44.21;103489.69;7281130;19;152228;-49
2021/12/19 02:56:28;;;;;;;;;;;;;;;20.09;44.22;103492.38;7281157;19;153228;-49
2021/12/19 02:58:55;;;;;;;;;;;;;;;20.06;44.60;103497.63;7277685;19;153302;-50
2021/12/19 03:01:22;;;;;;;;;;;;;;;20.04;44.24;103488.59;7281488;19;152317;-50
2021/12/19 03:03:49;;;;;;;;;;;;;;;20.02;44.22;103494.47;7279353;19;152696;-50
2021/12/19 03:06:16;;;;;;;;;;;;;;;20.01;44.62;103492.75;7280447;19;153263;-49
2021/12/19 03:08:47;;;;;;;;;;;;;;;20.01;44.15;103486.28;7284995;19;151821;-50
2021/12/19 03:11:47;;;;;;;;;;;;;;;19.99;44.64;103480.91;7281169;19;152400;-50
2021/12/19 03:19:03;;;;;;;;;;;;;;;19.93;44.71;103481.88;7279056;19;153236;-50
2021/12/19 03:21:30;;;;;;;;;;;;;;;19.89;44.77;103470.31;7281192;19;152258;-49
2021/12/19 03:23:57;;;;;;;;;;;;;;;19.87;44.64;103469.69;7282055;19;151811;-50
2021/12/19 03:26:24;;;;;;;;;;;;;;;19.86;44.86;103467.97;7280300;19;153401;-49
2021/12/19 03:28:51;;;;;;;;;;;;;;;19.83;44.65;103468.47;7282197;19;152130;-49
2021/12/19 03:31:18;;;;;;;;;;;;;;;19.77;44.54;103461.00;7251844;19;153094;-50
2021/12/19 03:33:45;;;;;;;;;;;;;;;19.76;44.58;103462.09;7276882;19;153788;-50
2021/12/19 03:36:12;;;;;;;;;;;;;;;19.73;44.86;103461.72;7285949;19;152442;-50
2021/12/19 03:38:43;;;;;;;;;;;;;;;19.74;45.01;103460.63;7273992;19;154031;-50
2021/12/19 03:43:40;;;;;;;;;;;;;;;19.68;45.08;103450.38;7279736;19;153386;-50
2021/12/19 03:46:07;;;;;;;;;;;;;;;19.65;45.00;103445.25;7278269;19;153992;-49
2021/12/19 03:48:34;;;;;;;;;;;;;;;19.63;44.96;103442.69;7278557;19;152132;-50
2021/12/19 03:51:01;;;;;;;;;;;;;;;19.63;44.75;103442.69;7277700;19;152784;-50
2021/12/19 03:53:28;;;;;;;;;;;;;;;19.59;45.06;103435.00;7279112;19;154319;-50
2021/12/19 03:55:55;;;;;;;;;;;;;;;19.55;45.08;103434.63;7280240;19;152086;-49
2021/12/19 03:58:22;;;;;;;;;;;;;;;19.56;44.85;103435.50;7286392;19;153136;-50
2021/12/19 04:00:50;;;;;;;;;;;;;;;19.52;44.84;103435.97;7277895;19;152872;-50
2021/12/19 04:03:21;;;;;;;;;;;;;;;19.49;45.14;103429.97;7280325;19;154281;-50
2021/12/19 04:05:49;;;;;;;;;;;;;;;19.47;45.08;103433.03;7274961;19;154766;-48
2021/12/19 04:08:16;;;;;;;;;;;;;;;19.45;44.96;103426.81;7280646;19;152519;-50
2021/12/19 04:10:43;;;;;;;;;;;;;;;19.42;44.92;103424.47;7279498;19;152723;-49
2021/12/19 04:13:10;;;;;;;;;;;;;;;19.40;45.16;103420.16;7278943;19;153369;-49
2021/12/19 04:15:36;;;;;;;;;;;;;;;19.38;44.96;103419.56;7279257;19;152696;-50
2021/12/19 04:18:04;;;;;;;;;;;;;;;19.36;45.28;103419.81;7279334;19;154085;-50
2021/12/19 04:20:31;;;;;;;;;;;;;;;19.33;44.93;103420.28;7283959;19;152647;-50
2021/12/19 04:22:58;;;;;;;;;;;;;;;19.30;45.31;103414.31;7280061;19;153314;-50
2021/12/19 04:25:25;;;;;;;;;;;;;;;19.28;45.39;103414.56;7276529;19;153978;-50
2021/12/19 04:27:52;;;;;;;;;;;;;;;19.26;45.07;103410.28;7279962;19;152333;-50
2021/12/19 04:30:21;;;;;;;;;;;;;;;19.23;45.39;103408.81;7257028;19;152679;-50
2021/12/19 04:32:57;;;;;;;;;;;;;;;19.23;45.11;103411.63;7272762;19;153851;-49
2021/12/19 04:35:30;;;;;;;;;;;;;;;19.22;45.21;103406.25;7278981;19;151993;-49
2021/12/19 04:40:36;;;;;;;;;;;;;;;19.14;45.14;103398.19;7274844;19;155646;-49
2021/12/19 04:53:14;;;;;;;;;;;;;;;19.06;45.28;103400.25;7278321;19;153807;-49
2021/12/19 05:00:52;;;;;;;;;;;;;;;18.99;45.63;103393.88;7276817;19;154192;-50
2021/12/19 05:03:32;;;;;;;;;;;;;;;19.00;45.39;103397.53;7284509;19;152172;-50
2021/12/19 05:15:59;;;;;;;;;;;;;;;18.93;45.35;103380.84;7277781;19;151792;-49
2021/12/19 05:18:30;;;;;;;;;;;;;;;18.92;45.25;103381.91;7278376;19;153705;-49
2021/12/19 05:21:01;;;;;;;;;;;;;;;18.89;45.56;103385.22;7276491;19;152992;-50
2021/12/19 05:25:57;;;;;;;;;;;;;;;18.87;45.23;103387.38;7283967;19;154259;-50
2021/12/19 05:28:24;;;;;;;;;;;;;;;18.86;45.26;103387.59;7276427;19;152228;-49
2021/12/19 05:30:51;;;;;;;;;;;;;;;18.83;45.29;103382.50;7254042;19;155602;-49
2021/12/19 05:33:18;;;;;;;;;;;;;;;18.83;45.69;103382.50;7267827;19;153814;-49
2021/12/19 05:46:00;;;;;;;;;;;;;;;18.74;45.35;103378.31;7280202;19;152604;-50
2021/12/19 05:48:27;;;;;;;;;;;;;;;18.73;45.37;103371.84;7285486;19;152453;-50
2021/12/19 05:50:53;;;;;;;;;;;;;;;18.74;45.31;103369.91;7278867;19;153038;-49
2021/12/19 05:53:20;;;;;;;;;;;;;;;18.73;45.59;103371.84;7277434;19;153250;-49
2021/12/19 05:55:47;;;;;;;;;;;;;;;18.70;45.59;103372.34;7277385;19;152396;-49
2021/12/19 05:58:14;;;;;;;;;;;;;;;18.68;45.40;103374.50;7277613;19;153088;-50
2021/12/19 06:00:42;;;;;;;;;;;;;;;18.67;45.52;103373.66;7277939;19;152679;-50
2021/12/19 06:03:10;;;;;;;;;;;;;;;18.68;45.30;103368.91;7279372;19;152051;-49
2021/12/19 06:05:37;;;;;;;;;;;;;;;18.65;45.67;103366.59;7277334;19;153349;-50
2021/12/19 06:08:04;;;;;;;;;;;;;;;18.63;45.33;103363.16;7278119;19;153968;-50
2021/12/19 06:10:31;;;;;;;;;;;;;;;18.61;45.67;103362.56;7285884;19;152124;-50
2021/12/19 06:12:59;;;;;;;;;;;;;;;18.59;45.68;103359.97;7277326;19;152593;-49
2021/12/19 06:15:26;;;;;;;;;;;;;;;18.60;45.42;103366.44;7279252;19;152089;-49
2021/12/19 06:17:53;;;;;;;;;;;;;;;18.61;45.28;103370.97;7276779;19;153655;-50
2021/12/19 06:20:21;;;;;;;;;;;;;;;18.65;45.72;103363.78;7275844;19;153886;-50
2021/12/19 06:22:48;;;;;;;;;;;;;;;18.69;45.80;103365.03;7274807;19;152405;-50
2021/12/19 06:25:15;;;;;;;;;;;;;;;18.71;46.14;103362.84;7276293;19;153646;-49
2021/12/19 06:27:42;;;;;;;;;;;;;;;18.74;46.15;103353.97;7275300;19;153105;-50
2021/12/19 06:30:09;;;;;;;;;;;;;;;18.80;46.35;103346.56;7274438;19;152562;-50
2021/12/19 06:32:37;;;;;;;;;;;;;;;18.85;46.48;103341.09;7279598;19;152983;-50
2021/12/19 06:35:07;;;;;;;;;;;;;;;18.90;46.21;103339.28;7276316;19;151939;-50
2021/12/19 06:37:38;;;;;;;;;;;;;;;18.95;46.60;103342.22;7274459;19;152636;-51
2021/12/19 06:40:06;;;;;;;;;;;;;;;19.02;46.14;103347.72;7272360;19;154076;-50
2021/12/19 06:42:33;;;;;;;;;;;;;;;19.08;46.10;103344.78;7273993;19;152924;-50
2021/12/19 06:45:00;;;;;;;;;;;;;;;19.15;45.77;103346.66;7273258;19;153413;-49
2021/12/19 06:47:27;;;;;;;;;;;;;;;19.22;46.00;103341.78;7271900;19;153261;-50
2021/12/19 06:49:54;;;;;;;;;;;;;;;19.28;45.89;103340.81;7274559;19;152064;-49
2021/12/19 06:52:21;;;;;;;;;;;;;;;19.34;45.41;103337.91;7273217;19;153345;-50
2021/12/19 06:54:48;;;;;;;;;;;;;;;19.40;45.38;103338.88;7281564;19;152116;-51
2021/12/19 06:57:15;;;;;;;;;;;;;;;19.46;45.36;103338.81;7276547;19;152712;-50
2021/12/19 06:59:42;;;;;;;;;;;;;;;19.52;44.96;103325.78;7276698;19;153965;-50
2021/12/19 07:02:14;;;;;;;;;;;;;;;19.59;44.65;103322.81;7278255;19;152605;-50
2021/12/19 07:04:41;;;;;;;;;;;;;;;19.64;44.88;103323.81;7275948;19;153693;-51
2021/12/19 07:07:08;;;;;;;;;;;;;;;19.69;44.57;103321.13;7280205;19;153844;-51
2021/12/19 07:09:35;;;;;;;;;;;;;;;19.75;44.46;103322.97;7280281;19;151934;-51
2021/12/19 07:12:02;;;;;;;;;;;;;;;19.80;44.58;103323.09;7280733;19;152571;-51
2021/12/19 07:14:29;;;;;;;;;;;;;;;19.86;43.96;103322.06;7286565;19;154062;-51
2021/12/19 07:16:56;;;;;;;;;;;;;;;19.91;44.08;103332.56;7280457;19;153094;-50
2021/12/19 07:19:23;;;;;;;;;;;;;;;19.97;44.12;103329.63;7281004;19;153392;-51
2021/12/19 07:21:50;;;;;;;;;;;;;;;20.02;43.98;103331.69;7281618;19;152192;-50
2021/12/19 07:24:17;;;;;;;;;;;;;;;20.06;43.80;103335.72;7281610;19;152683;-51
2021/12/19 07:26:44;;;;;;;;;;;;;;;20.12;43.68;103334.72;7279561;19;153645;-51
2021/12/19 07:29:10;;;;;;;;;;;;;;;20.17;43.91;103334.81;7280231;19;152027;-51
2021/12/19 07:31:38;;;;;;;;;;;;;;;20.21;43.53;103332.41;7280733;19;153943;-51
2021/12/19 07:34:06;;;;;;;;;;;;;;;20.26;43.38;103324.91;7280973;19;154144;-51
2021/12/19 07:39:09;;;;;;;;;;;;;;;20.35;43.33;103320.63;7278124;19;154019;-51
2021/12/19 07:41:36;;;;;;;;;;;;;;;20.40;43.15;103322.69;7278834;19;152426;-51
2021/12/19 07:44:03;;;;;;;;;;;;;;;20.44;42.98;103320.25;7281558;19;153447;-50
2021/12/19 07:46:31;;;;;;;;;;;;;;;20.49;42.66;103320.38;7277585;19;152561;-50
2021/12/19 07:48:58;;;;;;;;;;;;;;;20.52;42.94;103317.91;7280717;19;152424;-50
2021/12/19 07:51:25;;;;;;;;;;;;;;;20.55;42.97;103314.59;7279587;19;152358;-50
2021/12/19 07:53:52;;;;;;;;;;;;;;;20.59;42.69;103314.94;7278863;19;154628;-51
2021/12/19 07:56:18;;;;;;;;;;;;;;;20.63;42.48;103305.75;7279385;19;152643;-51
2021/12/19 07:58:45;;;;;;;;;;;;;;;20.66;42.84;103316.50;7286839;19;152249;-51
2021/12/19 08:01:12;;;;;;;;;;;;;;;20.71;42.30;103307.31;7277824;19;154022;-51
2021/12/19 08:03:39;;;;;;;;;;;;;;;20.73;42.64;103308.75;7280242;19;153201;-51
2021/12/19 08:06:06;;;;;;;;;;;;;;;20.77;42.17;103306.28;7280728;19;153399;-51
2021/12/19 08:08:34;;;;;;;;;;;;;;;20.81;42.16;103296.25;7279814;19;152172;-51
2021/12/19 08:13:31;;;;;;;;;;;;;;;20.86;42.10;103301.97;7276763;19;153372;-51
2021/12/19 08:15:58;;;;;;;;;;;;;;;20.89;42.02;103301.47;7280371;19;152402;-51
2021/12/19 08:18:25;;;;;;;;;;;;;;;20.93;41.80;103302.66;7275658;19;153391;-51
2021/12/19 08:20:52;;;;;;;;;;;;;;;20.96;41.71;103298.47;7286080;19;154888;-51
2021/12/19 08:23:19;;;;;;;;;;;;;;;20.98;41.90;103301.91;7279743;19;153192;-50
2021/12/19 08:25:46;;;;;;;;;;;;;;;21.02;41.49;103301.13;7277573;19;153313;-52
2021/12/19 08:28:12;;;;;;;;;;;;;;;21.05;41.66;103302.56;7279385;19;152307;-51
2021/12/19 08:30:39;;;;;;;;;;;;;;;21.07;41.79;103300.38;7279857;19;153537;-51
2021/12/19 08:33:06;;;;;;;;;;;;;;;21.10;41.73;103303.53;7275681;19;152992;-51
2021/12/19 08:35:33;;;;;;;;;;;;;;;21.13;41.25;103305.00;7276732;19;152643;-50
2021/12/19 08:38:00;;;;;;;;;;;;;;;21.16;41.19;103310.13;7279209;19;152594;-51
2021/12/19 08:40:28;;;;;;;;;;;;;;;21.18;41.10;103305.06;7275841;19;152337;-50
2021/12/19 08:42:57;;;;;;;;;;;;;;;21.20;41.27;103303.75;7287026;19;151719;-50
2021/12/19 08:45:24;;;;;;;;;;;;;;;21.22;40.93;103307.13;7275703;19;153338;-51
2021/12/19 08:47:51;;;;;;;;;;;;;;;21.25;40.91;103305.78;7278550;19;152909;-51
2021/12/19 08:50:18;;;;;;;;;;;;;;;21.27;41.07;103303.53;7279634;19;153157;-51
2021/12/19 08:52:45;;;;;;;;;;;;;;;21.29;41.26;103295.72;7278780;19;154591;-49
2021/12/19 08:55:12;;;;;;;;;;;;;;;21.32;40.78;103289.56;7281278;19;152496;-51
2021/12/19 08:57:39;;;;;;;;;;;;;;;21.34;40.92;103292.13;7277217;19;152794;-51
2021/12/19 09:00:10;;;;;;;;;;;;;;;21.36;40.58;103296.38;7277600;19;153753;-51
2021/12/19 09:02:38;;;;;;;;;;;;;;;21.39;40.78;103295.88;7285434;19;151724;-51
2021/12/19 09:05:05;;;;;;;;;;;;;;;21.41;40.90;103302.09;7270558;19;153004;-50
2021/12/19 09:07:32;;;;;;;;;;;;;;;21.43;40.92;103294.25;7280023;19;151683;-51
2021/12/19 09:09:59;;;;;;;;;;;;;;;21.46;40.49;103287.25;7278725;19;152897;-51
2021/12/19 09:12:27;;;;;;;;;;;;;;;21.47;40.51;103295.44;7274724;19;154353;-51
2021/12/19 09:14:55;;;;;;;;;;;;;;;21.49;40.50;103287.59;7277739;19;152065;-51
2021/12/19 09:17:21;;;;;;;;;;;;;;;21.51;40.19;103290.16;7276493;19;153942;-50
2021/12/19 09:19:48;;;;;;;;;;;;;;;21.55;40.51;103296.97;7277045;19;153795;-50
2021/12/19 09:22:15;;;;;;;;;;;;;;;21.55;40.18;103296.97;7273202;19;152533;-51
2021/12/19 09:24:42;;;;;;;;;;;;;;;21.57;40.19;103291.94;7283100;19;152923;-51
2021/12/19 09:27:09;;;;;;;;;;;;;;;21.60;40.13;103294.22;7275758;19;152240;-51
2021/12/19 09:29:36;;;;;;;;;;;;;;;21.62;40.17;103292.84;7275298;19;152703;-50
2021/12/19 09:32:04;;;;;;;;;;;;;;;21.64;40.33;103296.25;7276260;19;152378;-51
2021/12/19 09:34:31;;;;;;;;;;;;;;;21.64;40.42;103298.22;7281020;19;152143;-51
2021/12/19 09:36:57;;;;;;;;;;;;;;;21.64;40.21;103296.25;7278881;19;151947;-50
2021/12/19 09:39:25;;;;;;;;;;;;;;;21.64;40.46;103301.03;7264278;19;153907;-50
2021/12/19 09:41:54;;;;;;;;;;;;;;;21.67;40.06;103300.50;7276508;19;152239;-50
2021/12/19 09:44:21;;;;;;;;;;;;;;;21.67;40.48;103311.75;7274473;19;152611;-50
2021/12/19 09:46:49;;;;;;;;;;;;;;;21.69;40.08;103309.56;7279971;19;154547;-50
2021/12/19 09:49:17;;;;;;;;;;;;;;;21.74;40.14;103318.06;7276652;19;152317;-50
2021/12/19 09:51:44;;;;;;;;;;;;;;;21.80;39.67;103314.22;7277116;19;153130;-51
2021/12/19 09:54:11;;;;;;;;;;;;;;;21.86;39.69;103317.94;7276271;19;152142;-50
2021/12/19 09:56:39;;;;;;;;;;;;;;;21.89;39.81;103321.13;7275672;19;153365;-50
2021/12/19 09:59:09;;;;;;;;;;;;;;;21.96;39.90;103315.31;7276307;19;154532;-50
2021/12/19 10:01:36;;;;;;;;;;;;;;;22.00;40.32;103319.31;7276515;19;152999;-51
2021/12/19 10:04:03;;;;;;;;;;;;;;;22.05;40.44;103325.00;7275788;19;152116;-51
2021/12/19 10:06:30;;;;;;;;;;;;;;;22.08;40.29;103322.50;7274992;19;153273;-50
2021/12/19 10:09:00;;;;;;;;;;;;;;;22.12;40.42;103323.69;7286253;19;152114;-51
2021/12/19 10:11:32;;;;;;;;;;;;;;;22.16;40.19;103321.22;7273169;19;153982;-51
2021/12/19 10:13:59;;;;;;;;;;;;;;;22.20;40.49;103322.41;7277011;19;151669;-51
2021/12/19 10:16:29;;;;;;;;;;;;;;;22.24;40.54;103329.22;7276170;19;152658;-51
2021/12/19 10:18:59;;;;;;;;;;;;;;;22.28;40.55;103324.75;7275505;19;154053;-50
2021/12/19 10:21:27;;;;;;;;;;;;;;;22.32;40.46;103316.63;7275793;19;151791;-50
2021/12/19 10:23:59;;;;;;;;;;;;;;;22.35;40.70;103313.31;7275775;19;153553;-50
2021/12/19 10:26:39;;;;;;;;;;;;;;;22.39;40.91;103314.47;7274454;19;154008;-51
2021/12/19 10:29:06;;;;;;;;;;;;;;;22.42;40.38;103313.94;7278386;19;152055;-51
2021/12/19 10:31:33;;;;;;;;;;;;;;;22.46;40.65;103312.28;7285276;19;152547;-50
2021/12/19 10:34:17;;;;;;;;;;;;;;;22.48;40.64;103305.28;7271149;19;152840;-50
2021/12/19 10:36:44;;;;;;;;;;;;;;;22.53;40.47;103307.31;7273443;19;152256;-50
2021/12/19 10:39:23;;;;;;;;;;;;;;;22.57;40.54;103308.50;7274490;19;154504;-51
2021/12/19 10:41:59;;;;;;;;;;;;;;;22.60;41.07;103305.13;7281256;19;152442;-51
2021/12/19 10:47:17;;;;;;;;;;;;;;;22.67;40.81;103294.47;7279206;19;153848;-50
2021/12/19 10:49:46;;;;;;;;;;;;;;;22.71;40.75;103289.22;7281580;19;152699;-51
2021/12/19 10:52:13;;;;;;;;;;;;;;;22.74;41.06;103277.41;7281823;19;153133;-51
2021/12/19 10:54:42;;;;;;;;;;;;;;;22.75;40.88;103281.94;7288024;19;153997;-50
2021/12/19 10:57:11;;;;;;;;;;;;;;;22.76;40.47;103276.00;7281748;19;152684;-50
2021/12/19 10:59:39;;;;;;;;;;;;;;;22.77;40.39;103279.66;7279363;19;153735;-51
2021/12/19 11:02:06;;;;;;;;;;;;;;;22.77;40.63;103272.06;7281897;19;153278;-50
2021/12/19 11:04:34;;;;;;;;;;;;;;;22.79;40.52;103275.50;7281859;19;152714;-50
2021/12/19 11:07:02;;;;;;;;;;;;;;;22.78;40.53;103256.00;7280727;19;153808;-50
2021/12/19 11:09:30;;;;;;;;;;;;;;;22.78;40.64;103268.16;7282441;19;152144;-50
2021/12/19 11:11:59;;;;;;;;;;;;;;;22.77;40.61;103266.44;7282537;19;153067;-50
2021/12/19 11:14:26;;;;;;;;;;;;;;;22.77;40.56;103255.16;7290311;19;153258;-50
2021/12/19 11:16:55;;;;;;;;;;;;;;;22.77;40.93;103248.66;7283933;19;153304;-53
2021/12/19 11:19:23;;;;;;;;;;;;;;;22.76;40.50;103247.00;7280134;19;153484;-50
2021/12/19 11:22:11;;;;;;;;;;;;;;;22.75;40.94;103240.50;7280234;19;152021;-50
2021/12/19 11:24:38;;;;;;;;;;;;;;;22.74;40.79;103232.31;7280570;19;152458;-51
2021/12/19 11:27:06;;;;;;;;;;;;;;;22.73;40.86;103227.78;7281382;19;153561;-50
2021/12/19 11:29:33;;;;;;;;;;;;;;;22.72;41.07;103234.53;7280039;19;152437;-50
2021/12/19 11:32:03;;;;;;;;;;;;;;;22.68;41.00;103230.50;7279301;19;152297;-50
2021/12/19 11:34:33;;;;;;;;;;;;;;;22.66;40.72;103219.53;7278772;19;153739;-50
2021/12/19 11:37:00;;;;;;;;;;;;;;;22.62;40.70;103213.56;7292406;19;151832;-51
2021/12/19 11:39:29;;;;;;;;;;;;;;;22.62;40.78;103212.72;7281413;19;154720;-50
2021/12/19 11:41:59;;;;;;;;;;;;;;;22.60;41.15;103207.34;7279101;19;152525;-50
2021/12/19 11:44:29;;;;;;;;;;;;;;;22.58;40.98;103197.44;7279775;19;154306;-51
2021/12/19 11:46:56;;;;;;;;;;;;;;;22.54;41.22;103190.66;7275602;19;156120;-50
2021/12/19 11:49:26;;;;;;;;;;;;;;;22.50;41.13;103189.50;7277973;19;152595;-51
2021/12/19 11:51:56;;;;;;;;;;;;;;;22.45;41.19;103184.66;7283956;19;152497;-51
2021/12/19 11:54:23;;;;;;;;;;;;;;;22.43;40.77;103186.91;7279128;19;154410;-51
2021/12/19 11:57:05;;;;;;;;;;;;;;;22.43;40.91;103177.59;7279577;19;152133;-52
2021/12/19 11:59:32;;;;;;;;;;;;;;;22.41;40.85;103177.00;7286432;19;153741;-51
2021/12/19 12:02:02;;;;;;;;;;;;;;;22.38;41.29;103167.16;7280983;19;152263;-51
2021/12/19 12:04:31;;;;;;;;;;;;;;;22.36;41.01;103165.69;7279090;19;152974;-51
2021/12/19 12:06:58;;;;;;;;;;;;;;;22.35;41.10;103166.84;7280819;19;152587;-51
2021/12/19 12:09:29;;;;;;;;;;;;;;;22.32;41.35;103162.56;7282226;19;152229;-51
2021/12/19 12:11:59;;;;;;;;;;;;;;;22.29;41.64;103165.94;7279582;19;153022;-51
2021/12/19 12:14:29;;;;;;;;;;;;;;;22.26;41.67;103160.81;7276718;19;153690;-51
2021/12/19 12:16:59;;;;;;;;;;;;;;;22.22;41.84;103162.47;7280097;19;154061;-50
2021/12/19 12:19:29;;;;;;;;;;;;;;;22.16;41.84;103157.91;7279262;19;152608;-50
2021/12/19 12:21:56;;;;;;;;;;;;;;;22.13;41.83;103145.19;7287396;19;152911;-50
2021/12/19 12:24:23;;;;;;;;;;;;;;;22.11;42.28;103155.03;7277991;19;152626;-50
2021/12/19 12:26:57;;;;;;;;;;;;;;;22.11;42.63;103157.84;7276532;19;154001;-51
2021/12/19 12:29:25;;;;;;;;;;;;;;;22.08;42.93;103155.56;7275998;19;152697;-51
2021/12/19 12:31:52;;;;;;;;;;;;;;;21.98;42.25;103152.66;7277083;19;153441;-51
2021/12/19 12:34:20;;;;;;;;;;;;;;;21.83;42.11;103150.47;7273567;19;154608;-51
2021/12/19 12:36:47;;;;;;;;;;;;;;;21.73;41.91;103151.19;7279296;19;151615;-51
2021/12/19 12:39:19;;;;;;;;;;;;;;;21.69;41.28;103144.41;7279893;19;153211;-51
2021/12/19 12:44:14;;;;;;;;;;;;;;;21.76;41.14;103141.38;7285307;19;151666;-51
2021/12/19 12:46:42;;;;;;;;;;;;;;;21.72;41.29;103140.19;7277400;19;152745;-51
2021/12/19 12:49:10;;;;;;;;;;;;;;;21.74;41.43;103133.22;7272204;19;154765;-53
2021/12/19 12:51:40;;;;;;;;;;;;;;;21.73;41.18;103134.31;7276871;19;152636;-51
2021/12/19 12:54:09;;;;;;;;;;;;;;;21.74;40.87;103129.53;7273528;19;154981;-58
2021/12/19 12:56:42;;;;;;;;;;;;;;;21.76;40.67;103130.09;7279272;19;151837;-51
2021/12/19 12:59:10;;;;;;;;;;;;;;;21.80;40.78;103124.81;7277109;19;153263;-51
2021/12/19 13:01:41;;;;;;;;;;;;;;;21.80;40.60;103125.69;7276500;19;154136;-51
2021/12/19 13:04:10;;;;;;;;;;;;;;;21.81;40.68;103126.50;7276574;19;152149;-51
2021/12/19 13:06:39;;;;;;;;;;;;;;;21.83;40.44;103127.09;7285866;19;152713;-51
2021/12/19 13:09:08;;;;;;;;;;;;;;;21.84;40.64;103114.75;7279547;19;152265;-50
2021/12/19 13:11:35;;;;;;;;;;;;;;;21.85;40.15;103122.91;7279775;19;153365;-50
2021/12/19 13:14:05;;;;;;;;;;;;;;;21.88;40.43;103118.72;7278701;19;153978;-51
2021/12/19 13:16:40;;;;;;;;;;;;;;;21.89;40.68;103117.63;7278806;19;152246;-50
2021/12/19 13:19:07;;;;;;;;;;;;;;;21.89;40.65;103114.81;7275603;19;152672;-51
2021/12/19 13:21:37;;;;;;;;;;;;;;;21.87;40.18;103115.06;7277082;19;153331;-51
2021/12/19 13:24:04;;;;;;;;;;;;;;;21.89;40.53;103109.16;7278317;19;152181;-50
2021/12/19 13:26:31;;;;;;;;;;;;;;;21.88;40.09;103110.28;7284152;19;153593;-50
2021/12/19 13:29:15;;;;;;;;;;;;;;;21.88;40.04;103099.88;7277352;19;152334;-51
2021/12/19 13:31:42;;;;;;;;;;;;;;;21.88;39.98;103102.69;7275828;19;152444;-51
2021/12/19 13:34:12;;;;;;;;;;;;;;;21.90;40.10;103099.59;7275537;19;153971;-50
2021/12/19 13:36:39;;;;;;;;;;;;;;;21.89;39.66;103095.94;7278332;19;152721;-51
2021/12/19 13:39:09;;;;;;;;;;;;;;;21.89;39.97;103086.66;7277135;19;153008;-51
2021/12/19 13:41:37;;;;;;;;;;;;;;;21.89;39.48;103098.75;7274412;19;153612;-50
2021/12/19 13:44:04;;;;;;;;;;;;;;;21.88;39.47;103099.03;7276467;19;152559;-51
2021/12/19 13:46:32;;;;;;;;;;;;;;;21.89;39.16;103089.47;7277118;19;152772;-50
2021/12/19 13:48:59;;;;;;;;;;;;;;;21.87;39.48;103088.88;7277577;19;153464;-50
2021/12/19 13:51:27;;;;;;;;;;;;;;;21.83;38.93;103084.88;7273810;19;153064;-50
2021/12/19 13:53:56;;;;;;;;;;;;;;;21.82;39.21;103089.66;7273567;19;154375;-50